createdAt,value
2018-09-22T00:00:02.672Z,73.06
2018-09-22T00:01:02.664Z,73.16
2018-09-22T00:02:02.657Z,72.96
2018-09-22T00:03:02.653Z,73.47
2018-09-22T00:04:02.640Z,73.16
2018-09-22T00:05:02.619Z,73.78
2018-09-22T00:06:02.612Z,73.27
2018-09-22T00:07:02.615Z,73.16
2018-09-22T00:08:02.589Z,72.45
2018-09-22T00:09:02.577Z,73.06
2018-09-22T00:10:02.579Z,73.27
2018-09-22T00:11:02.552Z,73.27
2018-09-22T00:12:02.545Z,72.96
2018-09-22T00:13:02.584Z,73.16
2018-09-22T00:14:02.526Z,73.57
2018-09-22T00:15:02.509Z,74.19
2018-09-22T00:16:02.522Z,74.02
2018-09-22T00:17:02.488Z,73.68
2018-09-22T00:18:02.476Z,73.78
2018-09-22T00:19:02.470Z,73.78
2018-09-22T00:20:02.468Z,73.68
2018-09-22T00:21:02.452Z,74.29
2018-09-22T00:22:02.437Z,73.68
2018-09-22T00:23:02.423Z,73.78
2018-09-22T00:24:02.419Z,73.47
2018-09-22T00:25:02.413Z,73.85
2018-09-22T00:26:02.688Z,73.47
2018-09-22T00:27:02.383Z,73.98
2018-09-22T00:28:02.366Z,73.88
2018-09-22T00:29:02.358Z,73.78
2018-09-22T00:30:02.348Z,74.19
2018-09-22T00:31:02.332Z,74.29
2018-09-22T00:32:02.584Z,73.36
2018-09-22T00:33:02.315Z,73.88
2018-09-22T00:34:02.572Z,73.88
2018-09-22T00:35:02.289Z,73.78
2018-09-22T00:36:02.291Z,73.88
2018-09-22T00:37:02.268Z,73.78
2018-09-22T00:38:02.263Z,73.78
2018-09-22T00:39:02.258Z,73.68
2018-09-22T00:40:02.247Z,73.88
2018-09-22T00:41:02.754Z,73.68
2018-09-22T00:42:02.241Z,73.36
2018-09-22T00:43:02.200Z,73.78
2018-09-22T00:44:02.461Z,73.68
2018-09-22T00:45:02.187Z,73.57
2018-09-22T00:46:02.169Z,73.16
2018-09-22T00:47:02.153Z,73.57
2018-09-22T00:48:02.669Z,73.88
2018-09-22T00:49:02.136Z,73.27
2018-09-22T00:50:02.125Z,73.27
2018-09-22T00:51:02.119Z,73.98
2018-09-22T00:52:02.099Z,73.68
2018-09-22T00:53:02.353Z,74.39
2018-09-22T00:54:02.091Z,74.39
2018-09-22T00:55:02.069Z,73.78
2018-09-22T00:56:02.069Z,74.08
2018-09-22T00:57:02.046Z,74.19
2018-09-22T00:58:02.035Z,73.78
2018-09-22T00:59:02.160Z,73.78
2018-09-22T01:00:02.018Z,73.68
2018-09-22T01:01:02.000Z,73.16
2018-09-22T01:02:04.907Z,72.92
2018-09-22T01:03:01.983Z,73.78
2018-09-22T01:04:02.007Z,73.57
2018-09-22T01:05:01.957Z,73.33
2018-09-22T01:06:01.966Z,73.13
2018-09-22T01:07:01.935Z,73.13
2018-09-22T01:08:01.927Z,72.62
2018-09-22T01:09:01.932Z,73.03
2018-09-22T01:10:01.962Z,73.13
2018-09-22T01:11:01.895Z,73.57
2018-09-22T01:12:01.882Z,73.23
2018-09-22T01:13:01.874Z,73.33
2018-09-22T01:14:01.874Z,72.72
2018-09-22T01:15:01.854Z,73.16
2018-09-22T01:16:02.113Z,72.55
2018-09-22T01:17:01.861Z,73.13
2018-09-22T01:18:01.815Z,73.13
2018-09-22T01:19:01.803Z,73.27
2018-09-22T01:20:02.059Z,73.36
2018-09-22T01:21:01.791Z,74.08
2018-09-22T01:22:01.774Z,74.02
2018-09-22T01:23:01.772Z,73.68
2018-09-22T01:24:01.754Z,73.47
2018-09-22T01:25:01.740Z,74.22
2018-09-22T01:26:01.746Z,74.43
2018-09-22T01:27:01.984Z,74.53
2018-09-22T01:28:01.705Z,74.73
2018-09-22T01:29:01.730Z,75.04
2018-09-22T01:30:01.696Z,74.73
2018-09-22T01:31:01.672Z,75.18
2018-09-22T01:32:01.673Z,75.24
2018-09-22T01:33:01.653Z,74.63
2018-09-22T01:34:02.172Z,74.97
2018-09-22T01:35:01.632Z,74.97
2018-09-22T01:36:01.635Z,74.97
2018-09-22T01:37:01.614Z,74.87
2018-09-22T01:38:01.594Z,74.94
2018-09-22T01:39:01.583Z,75.07
2018-09-22T01:40:01.578Z,76.40
2018-09-22T01:41:01.562Z,75.28
2018-09-22T01:42:01.566Z,75.48
2018-09-22T01:43:01.543Z,75.48
2018-09-22T01:44:01.527Z,75.48
2018-09-22T01:45:01.519Z,75.28
2018-09-22T01:46:01.508Z,75.38
2018-09-22T01:47:02.972Z,75.45
2018-09-22T01:48:01.486Z,76.20
2018-09-22T01:49:01.473Z,76.40
2018-09-22T01:50:01.477Z,76.10
2018-09-22T01:51:01.451Z,75.79
2018-09-22T01:52:01.440Z,75.89
2018-09-22T01:53:01.686Z,75.89
2018-09-22T01:54:01.421Z,76.40
2018-09-22T01:55:01.679Z,76.31
2018-09-22T01:56:01.398Z,76.72
2018-09-22T01:57:01.384Z,76.51
2018-09-22T01:58:01.371Z,76.31
2018-09-22T01:59:01.617Z,76.10
2018-09-22T02:00:01.353Z,76.24
2018-09-22T02:01:01.403Z,75.99
2018-09-22T02:02:01.341Z,76.20
2018-09-22T02:03:01.318Z,76.44
2018-09-22T02:04:01.309Z,76.20
2018-09-22T02:05:01.298Z,76.44
2018-09-22T02:06:01.555Z,76.54
2018-09-22T02:07:01.545Z,75.89
2018-09-22T02:08:01.275Z,76.34
2018-09-22T02:09:01.261Z,76.92
2018-09-22T02:10:01.249Z,76.61
2018-09-22T02:11:01.231Z,76.75
2018-09-22T02:12:01.217Z,77.06
2018-09-22T02:13:01.224Z,77.12
2018-09-22T02:14:01.198Z,77.06
2018-09-22T02:15:01.197Z,76.95
2018-09-22T02:16:01.175Z,77.73
2018-09-22T02:17:01.177Z,76.92
2018-09-22T02:18:01.158Z,77.02
2018-09-22T02:19:01.142Z,76.72
2018-09-22T02:20:01.132Z,76.10
2018-09-22T02:21:01.132Z,76.72
2018-09-22T02:22:01.374Z,76.85
2018-09-22T02:23:01.099Z,77.84
2018-09-22T02:24:01.091Z,77.57
2018-09-22T02:25:01.074Z,77.47
2018-09-22T02:26:01.063Z,77.36
2018-09-22T02:27:01.053Z,77.57
2018-09-22T02:28:01.041Z,78.28
2018-09-22T02:29:01.036Z,77.47
2018-09-22T02:30:01.027Z,77.98
2018-09-22T02:31:01.008Z,77.47
2018-09-22T02:32:01.264Z,77.98
2018-09-22T02:33:01.518Z,78.08
2018-09-22T02:34:00.980Z,77.98
2018-09-22T02:35:00.973Z,78.39
2018-09-22T02:36:00.955Z,78.28
2018-09-22T02:37:00.942Z,77.77
2018-09-22T02:38:00.929Z,77.87
2018-09-22T02:39:00.920Z,77.98
2018-09-22T02:40:00.910Z,77.57
2018-09-22T02:41:01.162Z,77.64
2018-09-22T02:42:00.887Z,78.25
2018-09-22T02:43:00.880Z,78.05
2018-09-22T02:44:00.881Z,77.73
2018-09-22T02:45:00.856Z,77.84
2018-09-22T02:46:00.846Z,78.66
2018-09-22T02:47:00.836Z,78.35
2018-09-22T02:48:01.095Z,78.56
2018-09-22T02:49:00.810Z,78.25
2018-09-22T02:50:01.073Z,78.25
2018-09-22T02:51:00.797Z,78.25
2018-09-22T02:52:00.781Z,78.45
2018-09-22T02:53:00.768Z,78.25
2018-09-22T02:54:00.753Z,78.25
2018-09-22T02:55:00.758Z,78.25
2018-09-22T02:56:00.734Z,77.84
2018-09-22T02:57:00.719Z,78.39
2018-09-22T02:58:00.715Z,78.39
2018-09-22T02:59:00.700Z,79.52
2018-09-22T03:00:00.692Z,79.00
2018-09-22T03:01:00.684Z,78.70
2018-09-22T03:02:00.934Z,78.76
2018-09-22T03:03:00.653Z,78.49
2018-09-22T03:04:00.647Z,78.70
2018-09-22T03:05:00.640Z,79.11
2018-09-22T03:06:00.883Z,79.21
2018-09-22T03:07:00.612Z,79.82
2018-09-22T03:08:00.602Z,79.00
2018-09-22T03:09:00.589Z,79.21
2018-09-22T03:10:00.717Z,79.11
2018-09-22T03:11:00.569Z,79.21
2018-09-22T03:12:00.565Z,79.82
2018-09-22T03:13:00.549Z,79.62
2018-09-22T03:14:00.532Z,79.93
2018-09-22T03:15:00.523Z,79.66
2018-09-22T03:16:00.517Z,79.55
2018-09-22T03:17:00.500Z,79.66
2018-09-22T03:18:00.490Z,79.62
2018-09-22T03:19:00.479Z,79.66
2018-09-22T03:20:00.475Z,79.55
2018-09-22T03:21:00.459Z,79.62
2018-09-22T03:22:00.445Z,79.66
2018-09-22T03:23:00.434Z,79.55
2018-09-22T03:24:00.434Z,79.72
2018-09-22T03:25:00.414Z,79.62
2018-09-22T03:26:00.408Z,79.66
2018-09-22T03:27:00.387Z,79.82
2018-09-22T03:28:00.376Z,79.72
2018-09-22T03:29:00.369Z,79.52
2018-09-22T03:30:00.360Z,79.62
2018-09-22T03:31:00.353Z,79.52
2018-09-22T03:32:00.334Z,79.72
2018-09-22T03:33:00.330Z,79.00
2018-09-22T03:34:00.316Z,79.00
2018-09-22T03:35:00.301Z,79.11
2018-09-22T03:36:00.583Z,78.90
2018-09-22T03:37:00.281Z,79.21
2018-09-22T03:38:00.266Z,79.21
2018-09-22T03:39:00.271Z,79.75
2018-09-22T03:40:00.246Z,79.66
2018-09-22T03:41:00.236Z,79.82
2018-09-22T03:42:00.482Z,79.52
2018-09-22T03:43:00.234Z,78.94
2018-09-22T03:44:00.469Z,79.00
2018-09-22T03:45:00.466Z,79.00
2018-09-22T03:46:00.190Z,79.93
2018-09-22T03:47:00.173Z,79.82
2018-09-22T03:48:00.156Z,79.31
2018-09-22T03:49:00.143Z,79.62
2018-09-22T03:50:00.139Z,79.41
2018-09-22T03:51:00.133Z,79.48
2018-09-22T03:52:00.118Z,78.59
2018-09-22T03:53:00.493Z,78.49
2018-09-22T03:54:00.092Z,78.90
2018-09-22T03:55:00.082Z,79.07
2018-09-22T03:56:00.069Z,78.56
2018-09-22T03:57:00.058Z,78.56
2018-09-22T03:58:00.062Z,78.56
2018-09-22T03:59:00.038Z,78.39
2018-09-22T04:00:00.029Z,78.56
2018-09-22T04:01:00.022Z,78.39
2018-09-22T04:02:00.002Z,78.70
2018-09-22T04:02:59.995Z,78.28
2018-09-22T04:03:59.979Z,78.56
2018-09-22T04:04:59.971Z,78.59
2018-09-22T04:05:59.968Z,78.70
2018-09-22T04:06:59.961Z,78.59
2018-09-22T04:07:59.935Z,78.66
2018-09-22T04:09:00.190Z,78.35
2018-09-22T04:09:59.920Z,78.45
2018-09-22T04:10:59.901Z,78.76
2018-09-22T04:11:59.895Z,78.76
2018-09-22T04:12:59.888Z,78.56
2018-09-22T04:13:59.868Z,78.97
2018-09-22T04:14:59.873Z,78.59
2018-09-22T04:15:59.855Z,78.45
2018-09-22T04:16:59.839Z,78.59
2018-09-22T04:17:59.838Z,78.19
2018-09-22T04:19:00.079Z,78.86
2018-09-22T04:19:59.821Z,78.76
2018-09-22T04:20:59.793Z,78.45
2018-09-22T04:21:59.787Z,79.17
2018-09-22T04:23:00.033Z,78.56
2018-09-22T04:23:59.757Z,78.35
2018-09-22T04:24:59.749Z,78.35
2018-09-22T04:25:59.744Z,78.35
2018-09-22T04:26:59.729Z,78.56
2018-09-22T04:27:59.727Z,78.59
2018-09-22T04:28:59.972Z,78.35
2018-09-22T04:29:59.691Z,78.49
2018-09-22T04:30:59.689Z,78.25
2018-09-22T04:31:59.673Z,78.49
2018-09-22T04:32:59.660Z,78.19
2018-09-22T04:33:59.917Z,78.39
2018-09-22T04:34:59.639Z,78.66
2018-09-22T04:35:59.642Z,78.15
2018-09-22T04:36:59.631Z,78.35
2018-09-22T04:37:59.873Z,77.94
2018-09-22T04:38:59.596Z,78.35
2018-09-22T04:39:59.603Z,78.25
2018-09-22T04:40:59.577Z,77.84
2018-09-22T04:41:59.564Z,78.45
2018-09-22T04:42:59.554Z,77.70
2018-09-22T04:43:59.542Z,77.73
2018-09-22T04:44:59.652Z,77.64
2018-09-22T04:45:59.519Z,77.60
2018-09-22T04:46:59.510Z,77.60
2018-09-22T04:47:59.493Z,77.53
2018-09-22T04:48:59.485Z,78.11
2018-09-22T04:49:59.477Z,77.33
2018-09-22T04:50:59.468Z,77.43
2018-09-22T04:51:59.468Z,78.01
2018-09-22T04:52:59.721Z,77.53
2018-09-22T04:53:59.432Z,78.01
2018-09-22T04:54:59.419Z,77.53
2018-09-22T04:55:59.405Z,77.29
2018-09-22T04:56:59.401Z,77.33
2018-09-22T04:57:59.397Z,78.05
2018-09-22T04:58:59.636Z,77.23
2018-09-22T04:59:59.365Z,77.94
2018-09-22T05:00:59.351Z,77.23
2018-09-22T05:01:59.343Z,77.53
2018-09-22T05:02:59.328Z,77.53
2018-09-22T05:03:59.318Z,77.33
2018-09-22T05:04:59.312Z,77.94
2018-09-22T05:05:59.317Z,78.31
2018-09-22T05:06:59.286Z,77.94
2018-09-22T05:07:59.277Z,77.91
2018-09-22T05:08:59.263Z,77.50
2018-09-22T05:09:59.251Z,77.39
2018-09-22T05:10:59.511Z,77.91
2018-09-22T05:11:59.500Z,78.01
2018-09-22T05:12:59.228Z,77.91
2018-09-22T05:13:59.205Z,77.91
2018-09-22T05:14:59.201Z,78.01
2018-09-22T05:15:59.191Z,77.50
2018-09-22T05:16:59.234Z,77.29
2018-09-22T05:17:59.182Z,77.29
2018-09-22T05:18:59.151Z,78.11
2018-09-22T05:19:59.139Z,78.01
2018-09-22T05:20:59.144Z,77.60
2018-09-22T05:21:59.396Z,77.91
2018-09-22T05:22:59.121Z,78.01
2018-09-22T05:23:59.098Z,77.91
2018-09-22T05:24:59.089Z,77.91
2018-09-22T05:25:59.078Z,77.39
2018-09-22T05:26:59.066Z,77.50
2018-09-22T05:27:59.056Z,77.60
2018-09-22T05:28:59.039Z,77.29
2018-09-22T05:29:59.029Z,77.91
2018-09-22T05:30:59.020Z,78.01
2018-09-22T05:31:59.025Z,77.91
2018-09-22T05:32:58.997Z,77.60
2018-09-22T05:33:59.030Z,77.80
2018-09-22T05:34:59.245Z,78.11
2018-09-22T05:35:59.116Z,77.91
2018-09-22T05:36:58.972Z,78.01
2018-09-22T05:37:59.167Z,77.50
2018-09-22T05:38:58.936Z,77.56
2018-09-22T05:39:58.923Z,77.39
2018-09-22T05:40:58.914Z,77.39
2018-09-22T05:41:59.337Z,77.19
2018-09-22T05:42:59.234Z,77.39
2018-09-22T05:43:58.876Z,78.11
2018-09-22T05:44:58.865Z,78.01
2018-09-22T05:45:58.870Z,77.60
2018-09-22T05:46:58.845Z,77.19
2018-09-22T05:47:58.859Z,78.01
2018-09-22T05:48:58.827Z,77.50
2018-09-22T05:49:58.812Z,77.19
2018-09-22T05:50:58.800Z,77.39
2018-09-22T05:51:58.789Z,77.29
2018-09-22T05:52:58.783Z,77.70
2018-09-22T05:53:59.460Z,77.29
2018-09-22T05:54:59.024Z,77.19
2018-09-22T05:55:58.744Z,77.36
2018-09-22T05:56:58.788Z,78.01
2018-09-22T05:57:58.751Z,78.11
2018-09-22T05:58:58.726Z,77.36
2018-09-22T05:59:58.701Z,77.29
2018-09-22T06:00:58.706Z,77.29
2018-09-22T06:01:58.677Z,77.15
2018-09-22T06:02:58.669Z,77.36
2018-09-22T06:03:58.762Z,77.26
2018-09-22T06:04:58.913Z,77.46
2018-09-22T06:05:58.902Z,77.46
2018-09-22T06:06:58.632Z,77.26
2018-09-22T06:07:58.616Z,77.36
2018-09-22T06:08:58.606Z,77.67
2018-09-22T06:09:58.594Z,77.67
2018-09-22T06:10:58.580Z,77.76
2018-09-22T06:11:58.577Z,77.05
2018-09-22T06:12:58.613Z,77.67
2018-09-22T06:13:58.547Z,77.12
2018-09-22T06:14:58.540Z,76.40
2018-09-22T06:15:58.529Z,75.79
2018-09-22T06:16:58.522Z,76.30
2018-09-22T06:17:58.512Z,75.79
2018-09-22T06:18:58.491Z,76.30
2018-09-22T06:19:58.485Z,76.20
2018-09-22T06:20:58.472Z,75.59
2018-09-22T06:21:58.727Z,76.47
2018-09-22T06:22:58.471Z,76.16
2018-09-22T06:23:58.438Z,76.26
2018-09-22T06:24:58.426Z,75.96
2018-09-22T06:25:58.418Z,76.47
2018-09-22T06:26:58.404Z,75.41
2018-09-22T06:27:58.413Z,75.55
2018-09-22T06:28:58.387Z,75.21
2018-09-22T06:29:58.373Z,74.80
2018-09-22T06:30:58.361Z,74.66
2018-09-22T06:31:58.400Z,74.69
2018-09-22T06:32:58.610Z,74.56
2018-09-22T06:33:58.327Z,74.59
2018-09-22T06:34:58.331Z,74.46
2018-09-22T06:35:58.576Z,74.15
2018-09-22T06:36:58.294Z,73.74
2018-09-22T06:37:58.428Z,74.01
2018-09-22T06:38:58.272Z,74.35
2018-09-22T06:39:58.268Z,73.94
2018-09-22T06:40:58.252Z,73.91
2018-09-22T06:41:58.238Z,73.91
2018-09-22T06:42:58.229Z,72.99
2018-09-22T06:43:58.486Z,72.89
2018-09-22T06:44:58.206Z,72.38
2018-09-22T06:45:58.197Z,72.75
2018-09-22T06:46:58.201Z,72.65
2018-09-22T06:47:58.186Z,72.14
2018-09-22T06:48:58.292Z,72.04
2018-09-22T06:49:58.416Z,71.73
2018-09-22T06:50:58.131Z,71.91
2018-09-22T06:51:58.133Z,71.73
2018-09-22T06:52:58.122Z,71.60
2018-09-22T06:53:58.107Z,70.89
2018-09-22T06:54:58.210Z,70.68
2018-09-22T06:55:58.084Z,70.37
2018-09-22T06:56:58.083Z,70.75
2018-09-22T06:57:58.078Z,70.65
2018-09-22T06:58:58.051Z,70.34
2018-09-22T06:59:58.039Z,70.24
2018-09-22T07:00:58.029Z,69.80
2018-09-22T07:01:58.124Z,69.39
2018-09-22T07:02:58.013Z,69.59
2018-09-22T07:03:58.263Z,69.49
2018-09-22T07:04:58.004Z,69.19
2018-09-22T07:05:57.983Z,68.85
2018-09-22T07:06:57.961Z,68.95
2018-09-22T07:07:57.961Z,69.26
2018-09-22T07:08:57.941Z,68.44
2018-09-22T07:09:57.926Z,68.65
2018-09-22T07:10:57.922Z,68.44
2018-09-22T07:11:57.909Z,68.34
2018-09-22T07:12:57.899Z,67.90
2018-09-22T07:13:58.550Z,68.21
2018-09-22T07:14:57.875Z,67.90
2018-09-22T07:15:57.866Z,67.49
2018-09-22T07:16:57.848Z,66.47
2018-09-22T07:17:58.106Z,66.96
2018-09-22T07:18:57.833Z,66.55
2018-09-22T07:19:57.823Z,66.24
2018-09-22T07:20:57.807Z,66.75
2018-09-22T07:21:57.862Z,66.21
2018-09-22T07:22:57.799Z,66.11
2018-09-22T07:23:57.778Z,66.72
2018-09-22T07:24:58.032Z,66.52
2018-09-22T07:25:58.017Z,66.08
2018-09-22T07:26:57.752Z,66.18
2018-09-22T07:27:57.727Z,66.49
2018-09-22T07:28:57.983Z,65.36
2018-09-22T07:29:57.723Z,64.96
2018-09-22T07:30:57.896Z,65.16
2018-09-22T07:31:57.701Z,65.06
2018-09-22T07:32:57.681Z,64.52
2018-09-22T07:33:57.663Z,64.32
2018-09-22T07:34:57.914Z,64.32
2018-09-22T07:35:57.650Z,64.52
2018-09-22T07:36:57.640Z,64.32
2018-09-22T07:37:57.612Z,64.09
2018-09-22T07:38:57.606Z,64.22
2018-09-22T07:39:57.595Z,64.01
2018-09-22T07:40:57.584Z,63.78
2018-09-22T07:41:57.578Z,63.37
2018-09-22T07:42:57.842Z,63.28
2018-09-22T07:43:58.552Z,62.97
2018-09-22T07:44:57.541Z,63.28
2018-09-22T07:45:57.798Z,62.94
2018-09-22T07:46:57.519Z,62.84
2018-09-22T07:47:57.505Z,62.33
2018-09-22T07:48:57.497Z,62.13
2018-09-22T07:49:57.487Z,62.23
2018-09-22T07:50:57.473Z,62.84
2018-09-22T07:51:57.463Z,62.74
2018-09-22T07:52:57.450Z,61.52
2018-09-22T07:53:57.553Z,61.59
2018-09-22T07:54:57.428Z,60.98
2018-09-22T07:55:57.431Z,61.08
2018-09-22T07:56:57.537Z,61.08
2018-09-22T07:57:57.397Z,60.98
2018-09-22T07:58:57.389Z,59.86
2018-09-22T07:59:57.375Z,60.65
2018-09-22T08:00:57.365Z,60.78
2018-09-22T08:01:57.346Z,60.58
2018-09-22T08:02:57.345Z,60.04
2018-09-22T08:03:57.366Z,60.14
2018-09-22T08:04:57.586Z,60.35
2018-09-22T08:05:57.307Z,59.43
2018-09-22T08:06:57.304Z,59.63
2018-09-22T08:07:57.293Z,59.03
2018-09-22T08:08:57.538Z,58.62
2018-09-22T08:09:57.261Z,59.10
2018-09-22T08:10:57.253Z,58.90
2018-09-22T08:11:57.502Z,58.69
2018-09-22T08:12:57.231Z,57.68
2018-09-22T08:13:57.217Z,57.65
2018-09-22T08:14:57.211Z,58.44
2018-09-22T08:15:57.199Z,57.62
2018-09-22T08:16:57.187Z,57.62
2018-09-22T08:17:57.183Z,57.22
2018-09-22T08:18:57.166Z,57.50
2018-09-22T08:19:57.177Z,57.70
2018-09-22T08:20:57.157Z,57.40
2018-09-22T08:21:57.132Z,56.59
2018-09-22T08:22:57.127Z,55.95
2018-09-22T08:23:57.125Z,56.05
2018-09-22T08:24:57.115Z,56.66
2018-09-22T08:25:57.087Z,56.36
2018-09-22T08:26:57.078Z,55.42
2018-09-22T08:27:57.065Z,55.62
2018-09-22T08:28:57.079Z,55.32
2018-09-22T08:29:57.045Z,55.11
2018-09-22T08:30:57.048Z,55.73
2018-09-22T08:31:57.287Z,55.69
2018-09-22T08:32:57.317Z,55.19
2018-09-22T08:33:57.001Z,55.29
2018-09-22T08:34:56.995Z,55.09
2018-09-22T08:35:58.518Z,55.07
2018-09-22T08:36:57.142Z,54.76
2018-09-22T08:37:56.955Z,54.76
2018-09-22T08:38:57.212Z,54.86
2018-09-22T08:39:56.932Z,54.86
2018-09-22T08:40:57.180Z,55.57
2018-09-22T08:41:57.173Z,54.86
2018-09-22T08:42:56.903Z,54.74
2018-09-22T08:43:57.052Z,54.83
2018-09-22T08:44:56.941Z,55.04
2018-09-22T08:45:56.868Z,54.74
2018-09-22T08:46:56.856Z,53.93
2018-09-22T08:47:56.953Z,53.40
2018-09-22T08:48:56.831Z,53.90
2018-09-22T08:49:56.847Z,53.80
2018-09-22T08:50:56.854Z,54.21
2018-09-22T08:51:57.058Z,53.67
2018-09-22T08:52:56.787Z,53.78
2018-09-22T08:53:56.776Z,53.17
2018-09-22T08:54:56.768Z,53.07
2018-09-22T08:55:56.767Z,53.07
2018-09-22T08:56:57.003Z,53.17
2018-09-22T08:57:56.793Z,54.08
2018-09-22T08:58:56.847Z,53.67
2018-09-22T08:59:56.731Z,53.55
2018-09-22T09:00:56.819Z,52.97
2018-09-22T09:01:56.956Z,52.64
2018-09-22T09:02:56.697Z,52.64
2018-09-22T09:03:56.930Z,52.54
2018-09-22T09:04:56.713Z,53.17
2018-09-22T09:05:56.682Z,52.84
2018-09-22T09:06:56.635Z,53.17
2018-09-22T09:07:56.889Z,52.97
2018-09-22T09:08:56.628Z,52.36
2018-09-22T09:09:56.601Z,53.27
2018-09-22T09:10:56.588Z,53.58
2018-09-22T09:11:56.578Z,53.78
2018-09-22T09:12:56.567Z,53.67
2018-09-22T09:13:56.925Z,52.97
2018-09-22T09:14:56.804Z,52.94
2018-09-22T09:15:56.532Z,53.25
2018-09-22T09:16:56.550Z,53.25
2018-09-22T09:17:56.638Z,52.74
2018-09-22T09:18:56.516Z,52.42
2018-09-22T09:19:56.495Z,51.91
2018-09-22T09:20:56.478Z,52.11
2018-09-22T09:21:56.739Z,52.11
2018-09-22T09:22:56.715Z,52.22
2018-09-22T09:23:56.453Z,52.62
2018-09-22T09:24:56.437Z,51.99
2018-09-22T09:25:56.702Z,51.79
2018-09-22T09:26:56.415Z,51.38
2018-09-22T09:27:56.401Z,51.68
2018-09-22T09:28:56.497Z,52.06
2018-09-22T09:29:56.657Z,51.16
2018-09-22T09:30:56.472Z,50.78
2018-09-22T09:31:56.445Z,51.16
2018-09-22T09:32:56.457Z,50.68
2018-09-22T09:33:56.333Z,50.57
2018-09-22T09:34:56.330Z,50.96
2018-09-22T09:35:56.576Z,50.57
2018-09-22T09:36:56.462Z,50.96
2018-09-22T09:37:56.298Z,50.45
2018-09-22T09:38:56.315Z,50.96
2018-09-22T09:39:56.289Z,49.77
2018-09-22T09:40:56.256Z,49.37
2018-09-22T09:41:56.245Z,49.97
2018-09-22T09:42:56.240Z,49.37
2018-09-22T09:43:56.227Z,49.57
2018-09-22T09:44:56.217Z,50.17
2018-09-22T09:45:56.205Z,50.78
2018-09-22T09:46:56.206Z,50.57
2018-09-22T09:47:56.227Z,50.45
2018-09-22T09:48:56.177Z,50.56
2018-09-22T09:49:56.161Z,50.05
2018-09-22T09:50:56.152Z,50.02
2018-09-22T09:51:56.142Z,49.12
2018-09-22T09:52:56.132Z,49.60
2018-09-22T09:53:56.147Z,49.19
2018-09-22T09:54:56.116Z,49.19
2018-09-22T09:55:56.139Z,47.46
2018-09-22T09:56:56.089Z,48.05
2018-09-22T09:57:56.078Z,47.64
2018-09-22T09:58:56.065Z,47.24
2018-09-22T09:59:56.062Z,47.12
2018-09-22T10:00:56.347Z,46.41
2018-09-22T10:01:56.042Z,47.22
2018-09-22T10:02:56.016Z,46.72
2018-09-22T10:03:56.009Z,46.72
2018-09-22T10:04:56.019Z,46.92
2018-09-22T10:05:55.982Z,46.81
2018-09-22T10:06:55.973Z,46.61
2018-09-22T10:07:55.978Z,46.92
2018-09-22T10:08:56.075Z,46.92
2018-09-22T10:09:56.210Z,47.72
2018-09-22T10:10:55.944Z,46.81
2018-09-22T10:11:55.984Z,46.51
2018-09-22T10:12:56.008Z,46.92
2018-09-22T10:13:56.153Z,46.51
2018-09-22T10:14:55.889Z,46.41
2018-09-22T10:15:55.886Z,45.09
2018-09-22T10:16:55.872Z,45.39
2018-09-22T10:17:55.961Z,45.71
2018-09-22T10:18:55.836Z,45.89
2018-09-22T10:19:55.964Z,44.89
2018-09-22T10:20:55.816Z,44.67
2018-09-22T10:21:55.808Z,44.38
2018-09-22T10:22:55.794Z,44.99
2018-09-22T10:23:55.788Z,44.79
2018-09-22T10:24:55.791Z,44.68
2018-09-22T10:25:55.762Z,44.38
2018-09-22T10:26:56.016Z,44.48
2018-09-22T10:27:55.811Z,44.48
2018-09-22T10:28:55.784Z,44.16
2018-09-22T10:29:55.726Z,44.46
2018-09-22T10:30:55.783Z,44.34
2018-09-22T10:31:55.692Z,43.44
2018-09-22T10:32:55.682Z,43.84
2018-09-22T10:33:55.673Z,44.24
2018-09-22T10:34:55.666Z,44.34
2018-09-22T10:35:55.655Z,43.92
2018-09-22T10:36:55.654Z,42.91
2018-09-22T10:37:55.626Z,42.52
2018-09-22T10:38:55.881Z,43.62
2018-09-22T10:39:57.369Z,43.52
2018-09-22T10:40:55.615Z,42.80
2018-09-22T10:41:55.608Z,42.10
2018-09-22T10:42:55.575Z,42.80
2018-09-22T10:43:55.559Z,42.90
2018-09-22T10:44:55.615Z,42.10
2018-09-22T10:45:55.809Z,42.40
2018-09-22T10:46:55.527Z,42.19
2018-09-22T10:47:55.516Z,42.68
2018-09-22T10:48:55.614Z,42.07
2018-09-22T10:49:55.498Z,42.47
2018-09-22T10:50:55.497Z,42.18
2018-09-22T10:51:55.737Z,42.27
2018-09-22T10:52:55.480Z,42.38
2018-09-22T10:53:55.461Z,42.38
2018-09-22T10:54:55.443Z,43.18
2018-09-22T10:55:55.429Z,43.16
2018-09-22T10:56:55.416Z,42.66
2018-09-22T10:57:55.504Z,42.24
2018-09-22T10:58:55.409Z,42.43
2018-09-22T10:59:55.393Z,42.33
2018-09-22T11:00:55.640Z,42.33
2018-09-22T11:01:55.362Z,42.43
2018-09-22T11:02:55.354Z,42.32
2018-09-22T11:03:55.344Z,42.41
2018-09-22T11:04:55.328Z,41.21
2018-09-22T11:05:55.327Z,41.41
2018-09-22T11:06:55.324Z,41.31
2018-09-22T11:07:55.305Z,41.31
2018-09-22T11:08:55.290Z,41.91
2018-09-22T11:09:55.288Z,42.02
2018-09-22T11:10:55.284Z,41.82
2018-09-22T11:11:55.255Z,41.39
2018-09-22T11:12:55.249Z,41.69
2018-09-22T11:13:55.235Z,41.69
2018-09-22T11:14:55.238Z,40.81
2018-09-22T11:15:55.213Z,41.31
2018-09-22T11:16:55.200Z,40.91
2018-09-22T11:17:55.203Z,41.24
2018-09-22T11:18:55.181Z,41.66
2018-09-22T11:19:55.171Z,41.55
2018-09-22T11:20:55.170Z,41.77
2018-09-22T11:21:55.149Z,42.27
2018-09-22T11:22:55.142Z,42.07
2018-09-22T11:23:55.385Z,42.47
2018-09-22T11:24:55.115Z,42.38
2018-09-22T11:25:55.106Z,42.05
2018-09-22T11:26:55.283Z,42.35
2018-09-22T11:27:55.894Z,41.46
2018-09-22T11:28:55.072Z,42.05
2018-09-22T11:29:55.061Z,42.35
2018-09-22T11:30:55.063Z,42.46
2018-09-22T11:31:55.038Z,42.35
2018-09-22T11:32:55.026Z,42.38
2018-09-22T11:33:55.125Z,42.27
2018-09-22T11:34:55.006Z,43.48
2018-09-22T11:35:55.000Z,43.38
2018-09-22T11:36:55.016Z,42.07
2018-09-22T11:37:55.074Z,42.47
2018-09-22T11:38:55.019Z,42.88
2018-09-22T11:39:54.951Z,41.38
2018-09-22T11:40:54.948Z,42.47
2018-09-22T11:41:55.046Z,42.47
2018-09-22T11:42:55.304Z,42.60
2018-09-22T11:43:54.908Z,43.40
2018-09-22T11:44:54.900Z,43.19
2018-09-22T11:45:54.896Z,43.50
2018-09-22T11:46:54.876Z,43.50
2018-09-22T11:47:54.863Z,44.22
2018-09-22T11:48:54.854Z,43.72
2018-09-22T11:49:54.839Z,43.34
2018-09-22T11:50:54.848Z,43.94
2018-09-22T11:51:54.819Z,44.46
2018-09-22T11:52:54.811Z,44.96
2018-09-22T11:53:55.062Z,44.36
2018-09-22T11:54:54.788Z,44.60
2018-09-22T11:55:54.778Z,45.43
2018-09-22T11:56:54.867Z,47.06
2018-09-22T11:57:54.772Z,46.15
2018-09-22T11:58:54.743Z,45.35
2018-09-22T11:59:54.731Z,45.25
2018-09-22T12:00:54.737Z,45.17
2018-09-22T12:01:54.730Z,44.77
2018-09-22T12:02:54.701Z,45.27
2018-09-22T12:03:54.688Z,44.67
2018-09-22T12:04:54.676Z,45.17
2018-09-22T12:05:54.714Z,44.77
2018-09-22T12:06:54.670Z,44.79
2018-09-22T12:07:54.642Z,44.77
2018-09-22T12:08:54.632Z,44.89
2018-09-22T12:09:54.623Z,45.09
2018-09-22T12:10:54.610Z,45.29
2018-09-22T12:11:56.195Z,44.89
2018-09-22T12:12:54.594Z,44.69
2018-09-22T12:13:54.604Z,44.89
2018-09-22T12:14:54.581Z,44.79
2018-09-22T12:15:54.566Z,46.33
2018-09-22T12:16:54.549Z,45.21
2018-09-22T12:17:54.534Z,44.81
2018-09-22T12:18:54.518Z,44.81
2018-09-22T12:19:54.513Z,44.61
2018-09-22T12:20:54.513Z,43.91
2018-09-22T12:21:54.502Z,43.62
2018-09-22T12:22:54.595Z,43.82
2018-09-22T12:23:55.663Z,44.53
2018-09-22T12:24:54.458Z,44.02
2018-09-22T12:25:54.457Z,44.73
2018-09-22T12:26:54.519Z,44.63
2018-09-22T12:27:54.424Z,43.42
2018-09-22T12:28:54.425Z,43.82
2018-09-22T12:29:54.401Z,43.52
2018-09-22T12:30:54.387Z,43.51
2018-09-22T12:31:54.459Z,43.93
2018-09-22T12:32:54.367Z,43.52
2018-09-22T12:33:54.358Z,43.51
2018-09-22T12:34:54.365Z,44.61
2018-09-22T12:35:54.346Z,45.42
2018-09-22T12:36:54.825Z,45.32
2018-09-22T12:37:54.311Z,45.52
2018-09-22T12:38:54.337Z,47.53
2018-09-22T12:39:54.302Z,47.23
2018-09-22T12:40:54.281Z,47.33
2018-09-22T12:41:54.389Z,47.94
2018-09-22T12:42:54.256Z,48.24
2018-09-22T12:43:54.251Z,48.14
2018-09-22T12:44:54.281Z,48.72
2018-09-22T12:45:54.268Z,47.41
2018-09-22T12:46:54.214Z,48.11
2018-09-22T12:47:54.199Z,47.49
2018-09-22T12:48:54.204Z,47.39
2018-09-22T12:49:54.179Z,47.39
2018-09-22T12:50:54.173Z,46.76
2018-09-22T12:51:54.167Z,46.66